Time;durP1;ratioP1;P1;durP2;ratioP2;P2;SDS_P1;SDS_P2;PMS_P1;PMS_P2;Temp;Humidity;BMP_temperature;BMP_pressure;BME280_temperature;BME280_humidity;BME280_pressure;Samples;Min_cycle;Max_cycle;Signal;HPM_P1;HPM_P2
2022/03/02 00:01:50;;;;;;;8.83;7.77;;;3.10;23.40;;;;;;10387627;28;20234;-76
2022/03/02 00:06:54;;;;;;;9.37;8.03;;;3.00;23.20;;;;;;10387746;28;20232;-76
2022/03/02 00:11:59;;;;;;;8.53;7.57;;;3.00;23.40;;;;;;10384419;28;20653;-76
2022/03/02 00:17:02;;;;;;;9.13;7.53;;;3.00;23.60;;;;;;10387366;28;20234;-77
2022/03/02 00:22:05;;;;;;;8.33;7.50;;;2.90;23.40;;;;;;10384674;28;20234;-77
2022/03/02 00:27:10;;;;;;;11.53;8.83;;;2.90;23.50;;;;;;10383998;28;20249;-76
2022/03/02 00:32:14;;;;;;;9.70;7.83;;;2.80;23.60;;;;;;10383289;28;21144;-76
2022/03/02 00:37:17;;;;;;;9.03;8.13;;;2.80;23.50;;;;;;10378142;28;20325;-76
2022/03/02 00:42:22;;;;;;;7.50;6.53;;;2.70;23.60;;;;;;10400121;28;20234;-76
2022/03/02 00:47:26;;;;;;;8.97;7.17;;;2.70;23.70;;;;;;10390858;28;20240;-76
2022/03/02 00:52:29;;;;;;;8.00;7.20;;;2.70;23.60;;;;;;10389171;28;20247;-76
2022/03/02 00:57:34;;;;;;;10.87;7.50;;;2.60;23.60;;;;;;10397847;28;20259;-76
2022/03/02 01:02:37;;;;;;;9.13;7.17;;;2.50;23.80;;;;;;10394937;28;20223;-77
2022/03/02 01:07:40;;;;;;;7.13;6.30;;;2.40;23.60;;;;;;10394855;28;20239;-76
2022/03/02 01:12:45;;;;;;;7.50;6.53;;;2.40;23.70;;;;;;10397532;28;20226;-76
2022/03/02 01:17:48;;;;;;;7.80;6.10;;;2.30;23.90;;;;;;10391881;28;20801;-76
2022/03/02 01:22:52;;;;;;;8.27;6.63;;;2.30;23.80;;;;;;10391471;28;20230;-76
2022/03/02 01:27:56;;;;;;;9.80;7.20;;;2.30;23.90;;;;;;10393004;28;20238;-76
2022/03/02 01:32:59;;;;;;;8.60;6.73;;;2.20;24.10;;;;;;10392403;28;20349;-75
2022/03/02 01:38:03;;;;;;;6.77;6.07;;;2.20;23.80;;;;;;10393681;28;20234;-76
2022/03/02 01:43:07;;;;;;;7.83;6.57;;;2.30;24.00;;;;;;10392559;28;20337;-76
2022/03/02 01:48:11;;;;;;;9.13;6.60;;;2.20;24.10;;;;;;10396735;28;20242;-76
2022/03/02 01:53:14;;;;;;;7.40;6.63;;;2.10;24.60;;;;;;10388243;28;20234;-76
2022/03/02 01:58:18;;;;;;;6.93;5.70;;;2.10;24.10;;;;;;10390425;28;20612;-75
2022/03/02 02:03:21;;;;;;;7.00;6.30;;;2.00;24.00;;;;;;10392228;28;20249;-76
2022/03/02 02:08:25;;;;;;;8.27;6.37;;;1.90;23.90;;;;;;10388845;28;20240;-75
2022/03/02 02:13:32;;;;;;;8.70;6.77;;;1.90;23.90;;;;;;10388270;28;20226;-76
2022/03/02 02:18:36;;;;;;;7.83;6.47;;;1.90;23.90;;;;;;10386303;28;20234;-75
2022/03/02 02:23:40;;;;;;;7.60;6.40;;;1.80;23.90;;;;;;10401920;28;20601;-75
2022/03/02 02:28:45;;;;;;;7.17;6.33;;;1.80;23.90;;;;;;10385676;28;20226;-76
2022/03/02 02:33:48;;;;;;;6.13;5.53;;;1.80;23.90;;;;;;10387862;28;20232;-76
2022/03/02 02:38:54;;;;;;;6.60;5.90;;;1.80;23.90;;;;;;10386096;28;20676;-75
2022/03/02 02:43:57;;;;;;;6.87;6.03;;;1.80;23.90;;;;;;10390138;28;20596;-75
2022/03/02 02:49:00;;;;;;;7.00;5.60;;;1.70;23.80;;;;;;10393282;28;20229;-75
2022/03/02 02:54:05;;;;;;;6.30;5.27;;;1.70;23.80;;;;;;10381708;28;20221;-75
2022/03/02 02:59:08;;;;;;;7.03;5.63;;;1.60;23.90;;;;;;10385234;28;20237;-75
2022/03/02 03:04:12;;;;;;;6.17;5.57;;;1.60;23.90;;;;;;10389953;28;20219;-75
2022/03/02 03:09:17;;;;;;;5.80;5.20;;;1.50;24.00;;;;;;10379653;28;20824;-75
2022/03/02 03:14:20;;;;;;;7.00;6.10;;;1.50;24.20;;;;;;10389810;28;21365;-75
2022/03/02 03:19:23;;;;;;;6.03;5.30;;;1.50;24.20;;;;;;10388106;28;20573;-75
2022/03/02 03:24:28;;;;;;;7.07;6.13;;;1.40;24.10;;;;;;10391529;28;20226;-75
2022/03/02 03:29:31;;;;;;;6.67;4.80;;;1.30;24.40;;;;;;10394089;28;20316;-75
2022/03/02 03:34:34;;;;;;;5.13;4.63;;;1.20;24.40;;;;;;10403374;28;20239;-75
2022/03/02 03:39:39;;;;;;;6.90;5.57;;;1.20;24.50;;;;;;10387246;28;20236;-75
2022/03/02 03:44:42;;;;;;;8.47;6.13;;;1.20;24.60;;;;;;10391522;28;20218;-75
2022/03/02 03:49:46;;;;;;;8.03;5.83;;;1.20;24.60;;;;;;10399081;28;20603;-75
2022/03/02 03:54:50;;;;;;;6.47;5.87;;;1.10;24.40;;;;;;10384853;28;20233;-75
2022/03/02 03:59:53;;;;;;;6.53;5.33;;;1.10;24.50;;;;;;10391204;28;20623;-75
2022/03/02 04:04:56;;;;;;;7.63;6.03;;;1.00;24.50;;;;;;10381887;28;20317;-75
2022/03/02 04:10:01;;;;;;;6.70;6.00;;;1.10;24.60;;;;;;10401864;28;20237;-74
2022/03/02 04:15:05;;;;;;;6.67;5.23;;;0.90;24.60;;;;;;10398130;28;20230;-75
2022/03/02 04:20:10;;;;;;;6.60;5.70;;;0.80;24.50;;;;;;10385271;28;20234;-75
2022/03/02 04:25:15;;;;;;;6.77;5.67;;;0.80;24.80;;;;;;10379026;28;20226;-75
2022/03/02 04:30:18;;;;;;;8.30;6.90;;;0.80;25.10;;;;;;10384178;28;20238;-75
2022/03/02 04:35:21;;;;;;;7.93;6.30;;;0.80;24.90;;;;;;10393998;28;20242;-75
2022/03/02 04:40:26;;;;;;;6.73;5.77;;;0.60;24.80;;;;;;10385985;28;20286;-75
2022/03/02 04:45:29;;;;;;;7.17;5.90;;;0.60;25.20;;;;;;10397271;28;20237;-75
2022/03/02 04:50:32;;;;;;;8.43;5.77;;;0.50;25.10;;;;;;10394872;28;20578;-75
2022/03/02 04:55:37;;;;;;;7.27;6.07;;;0.60;25.30;;;;;;10385310;28;20240;-75
2022/03/02 05:00:40;;;;;;;7.93;6.43;;;0.60;25.40;;;;;;10391821;28;20228;-75
2022/03/02 05:05:44;;;;;;;6.77;5.97;;;0.60;25.40;;;;;;10387017;28;20237;-75
2022/03/02 05:10:48;;;;;;;7.60;6.40;;;0.80;25.50;;;;;;10380321;28;20226;-75
2022/03/02 05:15:51;;;;;;;7.07;5.70;;;0.70;25.50;;;;;;10384217;28;20341;-75
2022/03/02 05:20:55;;;;;;;7.00;5.73;;;0.70;25.40;;;;;;10379685;28;20250;-74
2022/03/02 05:25:59;;;;;;;7.20;6.03;;;0.70;25.40;;;;;;10381501;28;20241;-74
2022/03/02 05:31:03;;;;;;;7.83;6.23;;;0.70;25.50;;;;;;10387192;28;20232;-74
2022/03/02 05:36:06;;;;;;;7.00;6.13;;;0.80;25.50;;;;;;10393255;28;20611;-74
2022/03/02 05:41:11;;;;;;;9.60;6.30;;;0.80;26.10;;;;;;10371931;28;20745;-74
2022/03/02 05:46:14;;;;;;;6.83;5.53;;;0.80;25.70;;;;;;10389022;28;20239;-74
2022/03/02 05:51:17;;;;;;;8.63;6.43;;;0.80;25.50;;;;;;10392851;28;20714;-74
2022/03/02 05:56:23;;;;;;;9.40;6.43;;;0.90;25.50;;;;;;10395178;28;20230;-74
2022/03/02 06:01:26;;;;;;;8.87;7.03;;;0.90;25.70;;;;;;10381407;28;20229;-74
2022/03/02 06:06:31;;;;;;;9.53;6.23;;;1.00;26.40;;;;;;10385127;28;20230;-74
2022/03/02 06:11:36;;;;;;;6.93;6.27;;;1.00;25.60;;;;;;10372590;28;20229;-74
2022/03/02 06:16:40;;;;;;;7.67;6.77;;;0.90;25.80;;;;;;10388493;28;20236;-74
2022/03/02 06:21:46;;;;;;;10.40;7.27;;;0.90;25.60;;;;;;10392220;28;20240;-74
2022/03/02 06:26:50;;;;;;;11.70;8.50;;;0.90;25.80;;;;;;10368423;28;20237;-73
2022/03/02 06:31:54;;;;;;;9.10;6.63;;;0.90;25.80;;;;;;10396215;28;20233;-74
2022/03/02 06:36:57;;;;;;;8.70;7.10;;;0.80;25.70;;;;;;10403520;28;20233;-74
2022/03/02 06:42:09;;;;;;;9.97;7.10;;;0.80;25.90;;;;;;10400710;28;20239;-74
2022/03/02 06:47:14;;;;;;;10.77;6.70;;;0.80;26.40;;;;;;10380363;28;20257;-74
2022/03/02 06:52:20;;;;;;;8.43;7.00;;;0.80;26.30;;;;;;10400704;28;20238;-75
2022/03/02 06:57:29;;;;;;;7.63;6.27;;;0.80;26.40;;;;;;10387057;28;20234;-74
2022/03/02 07:02:38;;;;;;;9.97;6.10;;;0.90;27.10;;;;;;10370784;28;20233;-75
2022/03/02 07:07:42;;;;;;;16.43;8.27;;;1.00;28.60;;;;;;10373278;28;20226;-74
2022/03/02 07:12:47;;;;;;;9.53;6.90;;;1.20;28.20;;;;;;10364962;28;20234;-74
2022/03/02 07:17:52;;;;;;;7.80;6.97;;;1.40;28.00;;;;;;10367303;28;20236;-74
2022/03/02 07:22:57;;;;;;;8.07;6.60;;;1.60;27.50;;;;;;10396840;28;20221;-73
2022/03/02 07:28:02;;;;;;;8.07;6.63;;;1.70;27.30;;;;;;10393830;28;20233;-73
2022/03/02 07:33:06;;;;;;;9.07;6.10;;;1.80;27.10;;;;;;10389553;28;20229;-73
2022/03/02 07:38:09;;;;;;;8.63;6.97;;;1.90;26.90;;;;;;10382431;28;20292;-74
2022/03/02 07:43:15;;;;;;;8.80;6.60;;;1.90;26.90;;;;;;10385034;28;20234;-73
2022/03/02 07:48:18;;;;;;;7.33;6.20;;;2.10;27.20;;;;;;10385124;28;20228;-73
2022/03/02 07:53:27;;;;;;;7.53;6.43;;;2.10;27.10;;;;;;10382160;28;20236;-73
2022/03/02 07:58:32;;;;;;;6.70;5.97;;;2.30;27.50;;;;;;10382305;28;20242;-74
2022/03/02 08:03:38;;;;;;;8.40;6.00;;;2.40;27.50;;;;;;10383749;28;20222;-73
2022/03/02 08:08:42;;;;;;;10.40;7.33;;;2.60;27.20;;;;;;10372681;28;20233;-73
2022/03/02 08:13:46;;;;;;;10.30;7.67;;;2.70;27.00;;;;;;10385511;28;20224;-73
2022/03/02 08:18:49;;;;;;;11.77;8.00;;;2.80;27.20;;;;;;10375180;28;20269;-74
2022/03/02 08:23:55;;;;;;;12.23;8.40;;;3.00;27.10;;;;;;10372393;28;20238;-74
2022/03/02 08:29:03;;;;;;;10.67;8.40;;;3.10;27.20;;;;;;10375088;28;20230;-73
2022/03/02 08:34:07;;;;;;;12.10;8.20;;;3.20;27.40;;;;;;10373118;28;20242;-73
2022/03/02 08:39:13;;;;;;;12.30;9.03;;;3.40;27.30;;;;;;10380827;28;20316;-73
2022/03/02 08:44:18;;;;;;;10.60;8.00;;;3.50;27.50;;;;;;10384536;28;20289;-73
2022/03/02 08:49:22;;;;;;;10.53;8.77;;;3.60;27.30;;;;;;10384853;28;20694;-73
2022/03/02 08:54:28;;;;;;;8.97;8.07;;;3.80;27.20;;;;;;10379087;28;20340;-73
2022/03/02 08:59:34;;;;;;;11.33;8.87;;;3.90;27.30;;;;;;10392109;28;20226;-73
2022/03/02 09:04:39;;;;;;;8.87;7.97;;;4.10;27.20;;;;;;10394863;28;20255;-76
2022/03/02 09:09:42;;;;;;;8.67;7.77;;;4.40;27.10;;;;;;10390986;28;20854;-76
2022/03/02 09:14:47;;;;;;;13.30;8.70;;;4.50;26.80;;;;;;10390488;28;20253;-75
2022/03/02 09:19:51;;;;;;;8.80;7.80;;;4.50;27.30;;;;;;10388826;28;20233;-74
2022/03/02 09:24:55;;;;;;;8.00;7.30;;;4.70;26.70;;;;;;10390745;28;20221;-74
2022/03/02 09:30:03;;;;;;;8.73;7.50;;;4.80;26.60;;;;;;10396809;28;20237;-74
2022/03/02 09:35:10;;;;;;;7.50;6.70;;;5.00;26.60;;;;;;10394890;28;20247;-74
2022/03/02 09:40:24;;;;;;;8.43;7.57;;;5.10;26.60;;;;;;10395077;28;20240;-75
2022/03/02 09:45:31;;;;;;;8.17;7.23;;;5.30;26.70;;;;;;10393720;28;20232;-76
2022/03/02 09:50:39;;;;;;;8.00;7.20;;;5.50;26.30;;;;;;10389720;28;20736;-75
2022/03/02 09:55:42;;;;;;;9.27;7.93;;;5.60;26.30;;;;;;10383558;28;20232;-74
2022/03/02 10:00:48;;;;;;;8.60;7.50;;;5.70;26.30;;;;;;10394016;28;20236;-74
2022/03/02 10:05:53;;;;;;;9.57;7.03;;;5.80;26.40;;;;;;10387580;28;20739;-75
2022/03/02 10:10:59;;;;;;;8.07;7.27;;;6.00;26.50;;;;;;10385023;28;20230;-75
2022/03/02 10:16:05;;;;;;;9.13;7.93;;;6.10;26.60;;;;;;10386587;28;20229;-75
2022/03/02 10:21:09;;;;;;;7.83;7.13;;;6.30;26.70;;;;;;10387531;28;20608;-75
2022/03/02 10:26:18;;;;;;;8.13;7.33;;;6.40;26.70;;;;;;10387195;28;20598;-75
2022/03/02 10:31:41;;;;;;;8.20;7.03;;;6.50;26.30;;;;;;10390348;28;20225;-75
2022/03/02 10:36:47;;;;;;;8.00;7.30;;;6.70;26.40;;;;;;10388742;28;20236;-75
2022/03/02 10:41:51;;;;;;;9.00;8.10;;;6.90;26.20;;;;;;10395576;28;20684;-76
2022/03/02 10:47:04;;;;;;;8.60;7.43;;;7.00;26.10;;;;;;10391676;28;20223;-76
2022/03/02 10:52:10;;;;;;;7.33;6.63;;;7.10;26.00;;;;;;10403811;22;20289;-72
2022/03/02 10:57:14;;;;;;;8.80;7.90;;;7.30;26.00;;;;;;10396589;28;20230;-72
2022/03/02 11:02:22;;;;;;;8.10;7.33;;;7.30;25.80;;;;;;10395548;28;20233;-72
2022/03/02 11:07:27;;;;;;;8.20;7.13;;;7.40;25.70;;;;;;10381700;28;20224;-72
2022/03/02 11:12:31;;;;;;;7.43;6.53;;;7.50;25.80;;;;;;10383339;28;20226;-72
2022/03/02 11:17:36;;;;;;;8.87;7.57;;;7.60;25.90;;;;;;10380804;28;20238;-72
2022/03/02 11:22:40;;;;;;;11.17;6.83;;;7.80;25.80;;;;;;10389163;28;20316;-72
2022/03/02 11:27:43;;;;;;;8.30;7.50;;;7.90;25.80;;;;;;10391205;28;20859;-73
2022/03/02 11:32:48;;;;;;;8.30;7.50;;;8.00;25.50;;;;;;10389106;28;20304;-72
2022/03/02 11:37:58;;;;;;;8.40;7.60;;;8.10;25.40;;;;;;10380145;28;20232;-72
2022/03/02 11:43:13;;;;;;;7.70;7.00;;;8.20;25.20;;;;;;10385728;28;20221;-72
2022/03/02 11:48:22;;;;;;;7.90;7.10;;;8.30;25.30;;;;;;10386351;28;20230;-72
2022/03/02 11:53:30;;;;;;;9.40;8.50;;;8.40;25.10;;;;;;10386592;28;20616;-76
2022/03/02 11:58:55;;;;;;;8.87;7.97;;;8.50;24.90;;;;;;10392684;28;21787;-73
2022/03/02 12:04:20;;;;;;;8.53;7.63;;;8.60;25.20;;;;;;10396289;28;20233;-71
2022/03/02 12:09:26;;;;;;;9.37;8.50;;;8.70;25.00;;;;;;10405453;28;20276;-71
2022/03/02 12:14:29;;;;;;;10.33;7.93;;;8.80;24.90;;;;;;10409504;28;20225;-71
2022/03/02 12:19:34;;;;;;;9.00;8.13;;;8.90;25.00;;;;;;10403191;28;20230;-71
2022/03/02 12:24:37;;;;;;;8.23;7.50;;;8.90;24.80;;;;;;10409327;28;20592;-73
2022/03/02 12:29:42;;;;;;;7.63;6.93;;;9.00;24.80;;;;;;10407012;28;20241;-73
2022/03/02 12:34:50;;;;;;;9.30;8.30;;;9.10;24.80;;;;;;10396647;28;20252;-73
2022/03/02 12:39:53;;;;;;;8.27;7.47;;;9.10;24.60;;;;;;10403473;28;20400;-76
2022/03/02 12:44:58;;;;;;;8.40;7.27;;;9.20;24.80;;;;;;10393914;28;20309;-76
2022/03/02 12:50:06;;;;;;;8.07;7.27;;;9.30;24.70;;;;;;10398226;28;20304;-76
2022/03/02 12:55:12;;;;;;;7.23;6.63;;;9.40;24.50;;;;;;10395564;28;20226;-76
2022/03/02 13:00:18;;;;;;;7.33;6.63;;;9.40;24.40;;;;;;10399357;28;20289;-76
2022/03/02 13:05:32;;;;;;;9.73;7.00;;;9.50;24.50;;;;;;10393077;28;20736;-76
2022/03/02 13:10:35;;;;;;;7.87;7.10;;;9.60;24.10;;;;;;10393377;28;20761;-76
2022/03/02 13:15:40;;;;;;;7.27;6.57;;;9.70;24.60;;;;;;10393415;28;20646;-76
2022/03/02 13:20:48;;;;;;;8.30;7.60;;;9.70;24.40;;;;;;10395384;28;20225;-76
2022/03/02 13:26:13;;;;;;;8.67;7.77;;;9.80;24.10;;;;;;10395000;28;20244;-76
2022/03/02 13:31:18;;;;;;;7.80;7.10;;;9.80;23.70;;;;;;10379746;28;20226;-76
2022/03/02 13:36:35;;;;;;;7.80;7.00;;;9.90;24.20;;;;;;10401977;28;20431;-76
2022/03/02 13:41:47;;;;;;;8.77;7.53;;;9.90;23.90;;;;;;10395721;28;20607;-76
2022/03/02 13:47:20;;;;;;;8.20;7.27;;;10.00;23.10;;;;;;10393388;28;20721;-76
2022/03/02 13:53:06;;;;;;;10.33;7.53;;;10.00;23.00;;;;;;10392181;28;20226;-75
2022/03/02 13:58:22;;;;;;;8.07;7.27;;;10.10;22.90;;;;;;10387060;28;20240;-75
2022/03/02 14:03:31;;;;;;;8.20;7.40;;;10.10;22.70;;;;;;10389097;28;20235;-73
2022/03/02 14:08:49;;;;;;;7.07;6.40;;;10.10;23.10;;;;;;10389409;28;20229;-74
2022/03/02 14:13:54;;;;;;;7.80;7.00;;;10.10;22.90;;;;;;10388799;28;20699;-75
2022/03/02 14:19:06;;;;;;;8.00;7.30;;;10.30;23.10;;;;;;10401213;28;20226;-73
2022/03/02 14:24:17;;;;;;;7.83;7.07;;;10.20;22.70;;;;;;10396757;28;20232;-73
2022/03/02 14:29:21;;;;;;;8.03;7.23;;;10.20;22.70;;;;;;10388605;28;20228;-73
2022/03/02 14:34:26;;;;;;;7.77;6.97;;;10.30;23.00;;;;;;10389680;28;20234;-73
2022/03/02 14:39:30;;;;;;;8.33;7.47;;;10.30;23.00;;;;;;10385342;28;20886;-73
2022/03/02 14:44:34;;;;;;;9.37;7.80;;;10.40;23.10;;;;;;10381714;28;20218;-72
2022/03/02 14:49:40;;;;;;;8.17;7.23;;;10.40;23.00;;;;;;10393215;28;20611;-72
2022/03/02 14:54:44;;;;;;;8.70;7.43;;;10.40;22.80;;;;;;10380215;28;20221;-73
2022/03/02 14:59:48;;;;;;;8.50;7.60;;;10.50;23.60;;;;;;10376134;28;20226;-73
2022/03/02 15:04:56;;;;;;;8.73;7.80;;;10.50;23.30;;;;;;10373912;28;20221;-73
2022/03/02 15:10:05;;;;;;;8.50;7.50;;;10.50;23.10;;;;;;10377943;28;20229;-73
2022/03/02 15:15:16;;;;;;;8.87;8.07;;;10.50;22.90;;;;;;10382422;28;20222;-75
2022/03/02 15:20:19;;;;;;;9.17;8.27;;;10.50;22.80;;;;;;10386935;28;20225;-75
2022/03/02 15:25:23;;;;;;;9.33;8.43;;;10.50;23.10;;;;;;10384625;28;20225;-74
2022/03/02 15:30:31;;;;;;;10.83;8.57;;;10.50;23.10;;;;;;10386275;28;20694;-75
2022/03/02 15:35:36;;;;;;;7.50;6.73;;;10.50;22.80;;;;;;10385424;28;20241;-74
2022/03/02 15:40:40;;;;;;;9.33;7.47;;;10.50;25.20;;;;;;10386479;28;20229;-75
2022/03/02 15:45:47;;;;;;;9.13;7.97;;;10.60;24.80;;;;;;10386767;28;20235;-74
2022/03/02 15:50:52;;;;;;;7.63;6.93;;;10.70;23.80;;;;;;10390268;28;20345;-74
2022/03/02 15:56:01;;;;;;;7.70;6.90;;;10.80;23.40;;;;;;10392210;28;20843;-74
2022/03/02 16:01:05;;;;;;;8.07;7.27;;;10.80;23.10;;;;;;10400976;28;20221;-74
2022/03/02 16:06:12;;;;;;;7.83;7.00;;;10.80;22.90;;;;;;10392504;28;20234;-75
2022/03/02 16:11:17;;;;;;;8.53;7.73;;;10.80;23.00;;;;;;10387283;28;20230;-74
2022/03/02 16:16:21;;;;;;;10.27;8.07;;;10.80;23.00;;;;;;10395180;28;20709;-74
2022/03/02 16:21:25;;;;;;;8.27;7.47;;;10.80;22.90;;;;;;10385219;28;20225;-74
2022/03/02 16:26:33;;;;;;;8.60;7.33;;;10.80;23.20;;;;;;10393230;28;20236;-74
2022/03/02 16:31:38;;;;;;;9.67;7.73;;;10.80;23.20;;;;;;10395636;28;20233;-73
2022/03/02 16:36:46;;;;;;;9.00;7.20;;;10.80;23.30;;;;;;10380285;28;20288;-75
2022/03/02 16:41:49;;;;;;;9.13;7.87;;;10.60;24.40;;;;;;10394386;28;20663;-74
2022/03/02 16:46:59;;;;;;;9.63;8.30;;;10.60;23.50;;;;;;10388274;28;20253;-74
2022/03/02 16:52:02;;;;;;;10.93;8.53;;;10.60;23.30;;;;;;10391788;28;20217;-74
2022/03/02 16:57:06;;;;;;;10.73;8.90;;;10.50;23.40;;;;;;10387247;28;20225;-74
2022/03/02 17:02:11;;;;;;;9.80;8.90;;;10.40;23.10;;;;;;10391638;28;20229;-74
2022/03/02 17:07:14;;;;;;;10.90;9.80;;;10.20;23.10;;;;;;10398782;28;20230;-75
2022/03/02 17:12:17;;;;;;;15.07;11.27;;;10.10;23.10;;;;;;10375224;28;20230;-74
2022/03/02 17:17:22;;;;;;;10.87;9.73;;;10.00;23.20;;;;;;10385790;28;20233;-74
2022/03/02 17:22:26;;;;;;;13.53;12.13;;;9.90;24.20;;;;;;10392691;28;20229;-74
2022/03/02 17:27:29;;;;;;;11.17;10.07;;;9.90;24.10;;;;;;10396015;28;20222;-74
2022/03/02 17:32:34;;;;;;;10.67;9.57;;;9.80;24.10;;;;;;10388736;28;20226;-76
2022/03/02 17:37:37;;;;;;;12.20;10.87;;;9.70;24.10;;;;;;10396754;28;20240;-74
2022/03/02 17:42:41;;;;;;;10.20;9.20;;;9.60;24.10;;;;;;10399717;28;20225;-74
2022/03/02 17:47:46;;;;;;;11.20;10.00;;;9.60;24.10;;;;;;10388034;28;20454;-75
2022/03/02 17:52:49;;;;;;;12.03;10.40;;;9.50;24.30;;;;;;10393652;28;20222;-74
2022/03/02 17:57:52;;;;;;;8.90;8.03;;;9.40;24.30;;;;;;10386122;28;20223;-74
2022/03/02 18:02:57;;;;;;;9.07;8.23;;;9.30;24.20;;;;;;10382979;28;20689;-73
2022/03/02 18:08:01;;;;;;;10.87;9.80;;;9.20;24.30;;;;;;10382037;28;20227;-73
2022/03/02 18:13:04;;;;;;;9.10;8.20;;;9.10;24.40;;;;;;10378657;28;20229;-73
2022/03/02 18:18:09;;;;;;;8.90;8.10;;;9.10;24.40;;;;;;10375878;28;20239;-73
2022/03/02 18:23:12;;;;;;;11.80;10.63;;;9.00;24.40;;;;;;10380138;28;20761;-72
2022/03/02 18:28:16;;;;;;;8.63;7.83;;;8.90;24.40;;;;;;10380724;28;20886;-72
2022/03/02 18:33:20;;;;;;;9.97;8.97;;;8.80;24.30;;;;;;10383159;28;20968;-72
2022/03/02 18:38:24;;;;;;;8.37;7.57;;;8.70;24.30;;;;;;10388277;28;20230;-72
2022/03/02 18:43:27;;;;;;;12.50;10.70;;;8.60;24.30;;;;;;10388237;28;20226;-72
2022/03/02 18:48:32;;;;;;;12.00;10.80;;;8.60;24.40;;;;;;10383605;28;20221;-72
2022/03/02 18:53:36;;;;;;;14.93;13.43;;;8.50;24.40;;;;;;10388821;28;20234;-72
2022/03/02 18:58:40;;;;;;;13.67;12.27;;;8.30;24.30;;;;;;10386761;28;20598;-72
2022/03/02 19:03:44;;;;;;;11.43;10.23;;;8.20;24.40;;;;;;10389866;28;20217;-71
2022/03/02 19:08:48;;;;;;;11.50;10.30;;;8.10;24.40;;;;;;10387749;28;20229;-73
2022/03/02 19:13:51;;;;;;;13.47;12.17;;;8.10;24.50;;;;;;10392545;28;20327;-72
2022/03/02 19:18:56;;;;;;;16.30;14.40;;;7.90;24.50;;;;;;10381456;28;20227;-71
2022/03/02 19:24:00;;;;;;;14.57;13.07;;;7.80;24.50;;;;;;10383677;28;20229;-72
2022/03/02 19:29:05;;;;;;;12.63;11.40;;;7.80;24.60;;;;;;10380299;28;20217;-70
2022/03/02 19:34:12;;;;;;;12.97;11.87;;;7.70;24.60;;;;;;10378590;28;20234;-71
2022/03/02 19:44:37;;;;;;;13.07;11.80;;;7.50;24.70;;;;;;10375733;28;20222;-71
2022/03/02 19:49:44;;;;;;;12.73;11.37;;;7.40;24.60;;;;;;10377272;28;20711;-70
2022/03/02 19:54:48;;;;;;;12.30;11.03;;;7.30;24.80;;;;;;10377534;28;20294;-71
2022/03/02 19:59:52;;;;;;;11.17;9.87;;;7.20;24.80;;;;;;10376952;28;20311;-70
2022/03/02 20:04:57;;;;;;;9.63;8.63;;;7.10;24.80;;;;;;10363752;28;20218;-70
2022/03/02 20:10:03;;;;;;;8.37;7.57;;;7.00;25.00;;;;;;10367316;28;20237;-70
2022/03/02 20:15:07;;;;;;;8.40;7.60;;;6.90;24.90;;;;;;10367160;28;20229;-70
2022/03/02 20:20:13;;;;;;;9.27;8.37;;;6.80;25.00;;;;;;10374426;28;20225;-70
2022/03/02 20:25:16;;;;;;;8.97;8.07;;;6.70;25.10;;;;;;10372684;28;20218;-70
2022/03/02 20:30:19;;;;;;;9.93;8.67;;;6.70;25.10;;;;;;10377517;28;20246;-70
2022/03/02 20:35:25;;;;;;;8.60;7.80;;;6.60;25.10;;;;;;10368956;28;20543;-72
2022/03/02 20:40:42;;;;;;;10.23;9.30;;;6.60;25.20;;;;;;10374999;28;20237;-72
2022/03/02 20:45:46;;;;;;;14.50;12.47;;;6.50;25.20;;;;;;10369432;28;20301;-72
2022/03/02 20:50:52;;;;;;;16.93;15.07;;;6.50;25.30;;;;;;10374007;28;20226;-72
2022/03/02 20:55:56;;;;;;;15.63;12.90;;;6.40;25.20;;;;;;10381756;28;20231;-73
2022/03/02 21:00:59;;;;;;;15.70;13.67;;;6.20;25.00;;;;;;10387817;28;20233;-72
2022/03/02 21:06:05;;;;;;;16.40;14.53;;;6.10;25.20;;;;;;10388573;28;20243;-73
2022/03/02 21:11:09;;;;;;;14.30;12.83;;;6.00;25.40;;;;;;10387096;28;20257;-73
2022/03/02 21:16:12;;;;;;;14.03;12.63;;;5.90;25.40;;;;;;10391614;28;20236;-73
2022/03/02 21:21:17;;;;;;;14.00;12.37;;;5.90;25.50;;;;;;10392005;28;20222;-73
2022/03/02 21:26:21;;;;;;;11.43;10.13;;;5.80;25.70;;;;;;10390449;28;20272;-73
2022/03/02 21:31:25;;;;;;;14.63;13.07;;;5.80;25.50;;;;;;10385565;28;20580;-73
2022/03/02 21:36:30;;;;;;;13.80;11.90;;;5.70;25.70;;;;;;10387797;28;20225;-73
2022/03/02 21:41:33;;;;;;;13.40;11.30;;;5.60;25.60;;;;;;10395032;28;20653;-73
2022/03/02 21:46:36;;;;;;;17.20;13.77;;;5.60;25.60;;;;;;10388744;28;20742;-73
2022/03/02 21:51:41;;;;;;;16.87;14.20;;;5.50;25.60;;;;;;10383685;28;20234;-73
2022/03/02 21:56:45;;;;;;;15.17;13.20;;;5.50;25.90;;;;;;10383193;28;20958;-75
2022/03/02 22:01:48;;;;;;;17.53;15.23;;;5.40;25.70;;;;;;10388671;28;20670;-75
2022/03/02 22:06:53;;;;;;;19.20;15.33;;;5.40;25.90;;;;;;10390607;28;20711;-75
2022/03/02 22:11:57;;;;;;;16.47;14.73;;;5.20;25.60;;;;;;10392552;28;20240;-74
2022/03/02 22:17:00;;;;;;;17.63;14.67;;;5.00;25.40;;;;;;10386789;28;20799;-72
2022/03/02 22:22:05;;;;;;;15.97;13.53;;;4.80;25.60;;;;;;10392743;28;20228;-73
2022/03/02 22:27:09;;;;;;;15.63;13.97;;;4.50;25.60;;;;;;10380926;28;20606;-72
2022/03/02 22:32:12;;;;;;;18.60;13.67;;;4.40;25.50;;;;;;10387252;28;20238;-72
2022/03/02 22:37:17;;;;;;;15.27;13.40;;;4.30;25.50;;;;;;10387545;28;20261;-72
2022/03/02 22:42:21;;;;;;;14.60;13.10;;;4.20;25.90;;;;;;10399090;28;21149;-72
2022/03/02 22:47:24;;;;;;;13.03;11.73;;;4.20;25.80;;;;;;10383145;28;20229;-74
2022/03/02 22:52:29;;;;;;;15.20;12.73;;;4.20;25.70;;;;;;10386763;28;20699;-74
2022/03/02 22:57:32;;;;;;;16.20;12.73;;;4.10;25.90;;;;;;10385768;28;20313;-75
2022/03/02 23:02:36;;;;;;;16.33;12.80;;;4.10;25.70;;;;;;10389308;28;20562;-75
2022/03/02 23:18:24;;;;;;;11.80;10.60;;;3.90;25.90;;;;;;10394867;28;20259;-75
2022/03/02 23:23:28;;;;;;;11.47;9.83;;;3.80;25.70;;;;;;10384947;28;20307;-74
2022/03/02 23:28:32;;;;;;;14.00;11.50;;;3.70;25.90;;;;;;10393089;28;20238;-75
2022/03/02 23:33:35;;;;;;;11.70;10.50;;;3.70;26.00;;;;;;10382078;28;20300;-75
2022/03/02 23:38:39;;;;;;;17.27;11.27;;;3.60;26.10;;;;;;10390652;28;20236;-75
2022/03/02 23:43:44;;;;;;;11.77;10.00;;;3.60;26.30;;;;;;10382385;28;20225;-75
2022/03/02 23:48:48;;;;;;;12.53;10.13;;;3.60;26.10;;;;;;10387942;28;20240;-75
2022/03/02 23:53:52;;;;;;;12.47;10.70;;;3.60;26.20;;;;;;10393461;28;20244;-75
2022/03/02 23:58:55;;;;;;;11.33;10.13;;;3.50;26.30;;;;;;10380057;28;20232;-74
